Time;durP1;ratioP1;P1;durP2;ratioP2;P2;SDS_P1;SDS_P2;PMS_P1;PMS_P2;Temp;Humidity;BMP_temperature;BMP_pressure;BME280_temperature;BME280_humidity;BME280_pressure;Samples;Min_cycle;Max_cycle;Signal;HPM_P1;HPM_P2
2023/05/16 00:03:56;;;;;;;0.75;0.50;;;;;;;0.01;0.00;59042.03;10493174;28;20049;-80
2023/05/16 00:08:58;;;;;;;1.90;0.88;;;;;;;0.01;0.00;59042.03;10506907;28;20402;-80
2023/05/16 00:14:00;;;;;;;3.30;0.68;;;;;;;0.01;0.00;59042.03;10505704;28;20191;-81
2023/05/16 00:19:03;;;;;;;1.80;0.57;;;;;;;0.01;0.00;59042.03;10479282;28;20561;-80
2023/05/16 00:24:05;;;;;;;0.38;0.35;;;;;;;0.01;0.00;59042.03;10467135;28;20075;-80
2023/05/16 00:29:06;;;;;;;1.33;0.52;;;;;;;0.01;0.00;59042.03;10459564;28;20052;-80
2023/05/16 00:34:08;;;;;;;1.38;0.55;;;;;;;0.01;0.00;59042.03;10459363;28;20136;-81
2023/05/16 00:39:10;;;;;;;3.38;0.68;;;;;;;0.01;0.00;59042.03;10461815;28;20079;-80
2023/05/16 00:44:11;;;;;;;0.65;0.47;;;;;;;0.01;0.00;59042.03;10473572;28;20269;-80
2023/05/16 00:49:13;;;;;;;2.97;0.75;;;;;;;0.01;0.00;59042.03;10473436;28;20076;-80
2023/05/16 00:54:15;;;;;;;0.17;0.15;;;;;;;0.01;0.00;59042.03;10441423;28;20059;-80
2023/05/16 00:59:16;;;;;;;2.35;0.90;;;;;;;0.01;0.00;59042.03;10465886;28;20040;-80
2023/05/16 01:04:19;;;;;;;8.75;1.15;;;;;;;0.01;0.00;59042.03;10491576;28;20049;-80
2023/05/16 01:09:21;;;;;;;2.05;0.50;;;;;;;0.01;0.00;59042.03;10485187;28;20037;-80
2023/05/16 01:14:49;;;;;;;0.40;0.28;;;;;;;0.01;0.00;59042.03;10490631;28;20072;-80
2023/05/16 01:19:54;;;;;;;3.15;0.60;;;;;;;0.01;0.00;59042.03;10497487;28;20041;-80
2023/05/16 01:24:55;;;;;;;7.13;1.33;;;;;;;0.01;0.00;59042.03;10499156;28;20048;-79
2023/05/16 01:29:57;;;;;;;6.30;0.65;;;;;;;0.01;0.00;59042.03;10483893;28;20112;-81
2023/05/16 01:34:59;;;;;;;0.75;0.60;;;;;;;0.01;0.00;59042.03;10501122;28;20049;-81
2023/05/16 01:40:11;;;;;;;0.22;0.20;;;;;;;0.01;0.00;59042.03;10491986;28;20121;-81
2023/05/16 01:45:28;;;;;;;1.70;0.55;;;;;;;0.01;0.00;59042.03;10485678;28;20059;-80
2023/05/16 01:50:33;;;;;;;0.98;0.50;;;;;;;0.01;0.00;59042.03;10492186;28;20120;-80
2023/05/16 01:55:43;;;;;;;2.08;0.70;;;;;;;0.01;0.00;59042.03;10486363;28;20096;-80
2023/05/16 02:00:45;;;;;;;1.95;0.65;;;;;;;0.01;0.00;59042.03;10493329;28;20048;-80
2023/05/16 02:05:46;;;;;;;9.15;0.90;;;;;;;0.01;0.00;59042.03;10506468;28;20039;-80
2023/05/16 02:10:48;;;;;;;1.75;0.65;;;;;;;0.01;0.00;59042.03;10493186;28;20109;-80
2023/05/16 02:15:50;;;;;;;2.50;0.68;;;;;;;0.01;0.00;59042.03;10499436;28;20041;-80
2023/05/16 02:20:52;;;;;;;2.33;0.47;;;;;;;0.01;0.00;59042.03;10489799;28;20040;-80
2023/05/16 02:25:54;;;;;;;1.65;0.40;;;;;;;0.01;0.00;59042.03;10517402;28;20118;-81
2023/05/16 02:30:58;;;;;;;1.35;0.57;;;;;;;0.01;0.00;59042.03;10507204;28;20055;-80
2023/05/16 02:35:59;;;;;;;0.40;0.25;;;;;;;0.01;0.00;59042.03;10482608;28;20053;-80
2023/05/16 02:41:01;;;;;;;12.02;0.50;;;;;;;0.01;0.00;59042.03;10500634;28;20060;-81
2023/05/16 02:46:21;;;;;;;1.75;0.82;;;;;;;0.01;0.00;59042.03;10484790;28;20041;-80
2023/05/16 02:51:25;;;;;;;5.93;0.40;;;;;;;0.01;0.00;59042.03;10499704;28;20138;-79
2023/05/16 02:56:27;;;;;;;4.05;0.50;;;;;;;0.01;0.00;59042.03;10475124;28;20170;-80
2023/05/16 03:01:28;;;;;;;7.43;0.75;;;;;;;0.01;0.00;59042.03;10490544;28;20059;-80
2023/05/16 03:06:32;;;;;;;1.65;0.75;;;;;;;0.01;0.00;59042.03;10512961;28;20029;-80
2023/05/16 03:11:34;;;;;;;0.20;0.20;;;;;;;0.01;0.00;59042.03;10506925;28;20052;-80
2023/05/16 03:16:38;;;;;;;0.03;0.03;;;;;;;0.01;0.00;59042.03;10508270;28;20036;-80
2023/05/16 03:21:40;;;;;;;1.63;0.60;;;;;;;0.01;0.00;59042.03;10507509;28;20040;-80
2023/05/16 03:26:42;;;;;;;0.20;0.20;;;;;;;0.01;0.00;59042.03;10508583;28;20036;-79
2023/05/16 03:31:43;;;;;;;1.45;0.50;;;;;;;0.01;0.00;59042.03;10493412;28;20055;-80
2023/05/16 03:36:48;;;;;;;1.70;0.40;;;;;;;0.01;0.00;59042.03;10512595;28;20086;-80
2023/05/16 03:41:50;;;;;;;4.13;1.35;;;;;;;0.01;0.00;59042.03;10490283;28;20108;-79
2023/05/16 03:46:53;;;;;;;8.77;0.95;;;;;;;0.01;0.00;59042.03;10465667;28;20151;-79
2023/05/16 03:51:56;;;;;;;3.60;0.32;;;;;;;0.01;0.00;59042.03;10480514;28;20068;-80
2023/05/16 03:56:57;;;;;;;1.25;0.75;;;;;;;0.01;0.00;59042.03;10498705;28;20045;-81
2023/05/16 04:01:59;;;;;;;0.98;0.50;;;;;;;0.01;0.00;59042.03;10484355;28;20135;-81
2023/05/16 04:07:01;;;;;;;2.00;0.65;;;;;;;0.01;0.00;59042.03;10481528;28;20036;-80
2023/05/16 04:12:03;;;;;;;0.40;0.40;;;;;;;0.01;0.00;59042.03;10476336;28;20724;-80
2023/05/16 04:17:05;;;;;;;0.98;0.65;;;;;;;0.01;0.00;59042.03;10483228;28;20128;-81
2023/05/16 04:22:07;;;;;;;0.00;0.00;;;;;;;0.01;0.00;59042.03;10467383;28;20053;-81
2023/05/16 04:27:08;;;;;;;0.17;0.17;;;;;;;0.01;0.00;59042.03;10493032;28;20040;-81
2023/05/16 04:32:11;;;;;;;1.77;0.45;;;;;;;0.01;0.00;59042.03;10475805;28;20075;-80
2023/05/16 04:37:13;;;;;;;6.22;0.63;;;;;;;0.01;0.00;59042.03;10475626;28;20041;-80
2023/05/16 04:42:15;;;;;;;4.05;0.70;;;;;;;0.01;0.00;59042.03;10486848;28;20068;-80
2023/05/16 04:47:16;;;;;;;3.13;0.45;;;;;;;0.01;0.00;59042.03;10470324;28;20048;-80
2023/05/16 04:52:18;;;;;;;0.20;0.20;;;;;;;0.01;0.00;59042.03;10489204;28;20043;-81
2023/05/16 04:57:20;;;;;;;4.38;0.90;;;;;;;0.01;0.00;59042.03;10502144;28;20092;-80
2023/05/16 05:02:21;;;;;;;7.47;0.30;;;;;;;0.01;0.00;59042.03;10478586;28;20108;-80
2023/05/16 05:07:26;;;;;;;1.73;0.63;;;;;;;0.01;0.00;59042.03;10486749;28;20048;-80
2023/05/16 05:12:28;;;;;;;0.98;0.40;;;;;;;0.01;0.00;59042.03;10480377;28;20072;-80
2023/05/16 05:17:30;;;;;;;6.70;0.63;;;;;;;0.01;0.00;59042.03;10484816;28;20060;-80
2023/05/16 05:22:32;;;;;;;0.30;0.30;;;;;;;0.01;0.00;59042.03;10495000;28;20052;-81
2023/05/16 05:27:33;;;;;;;2.72;0.55;;;;;;;0.01;0.00;59042.03;10494623;28;20037;-81
2023/05/16 05:32:35;;;;;;;2.35;1.02;;;;;;;0.01;0.00;59042.03;10477069;28;20033;-81
2023/05/16 05:37:36;;;;;;;2.55;0.22;;;;;;;0.01;0.00;59042.03;10486117;28;20044;-82
2023/05/16 05:42:38;;;;;;;0.63;0.40;;;;;;;0.01;0.00;59042.03;10508470;28;20519;-81
2023/05/16 05:47:40;;;;;;;0.20;0.20;;;;;;;0.01;0.00;59042.03;10486149;28;20040;-80
2023/05/16 05:52:42;;;;;;;1.00;0.45;;;;;;;0.01;0.00;59042.03;10496365;28;20040;-81
2023/05/16 05:57:43;;;;;;;2.38;0.60;;;;;;;0.01;0.00;59042.03;10488500;28;20029;-79
2023/05/16 06:02:46;;;;;;;1.90;0.55;;;;;;;0.01;0.00;59042.03;10470509;28;20049;-81
2023/05/16 06:07:48;;;;;;;1.00;0.52;;;;;;;0.01;0.00;59042.03;10484297;28;20044;-80
2023/05/16 06:12:49;;;;;;;3.33;1.00;;;;;;;0.01;0.00;59042.03;10475783;28;20041;-79
2023/05/16 06:17:51;;;;;;;6.72;0.57;;;;;;;0.01;0.00;59042.03;10483339;28;20127;-80
2023/05/16 06:22:53;;;;;;;1.08;0.20;;;;;;;0.01;0.00;59042.03;10478373;28;20113;-81
2023/05/16 06:27:54;;;;;;;2.83;0.32;;;;;;;0.01;0.00;59042.03;10459337;28;20400;-81
2023/05/16 06:32:57;;;;;;;5.50;0.70;;;;;;;0.01;0.00;59042.03;10480918;28;20048;-81
2023/05/16 06:37:58;;;;;;;2.55;0.57;;;;;;;0.01;0.00;59042.03;10460143;28;20503;-81
2023/05/16 06:43:00;;;;;;;4.78;0.40;;;;;;;0.01;0.00;59042.03;10474004;28;20512;-81
2023/05/16 06:48:03;;;;;;;0.30;0.30;;;;;;;0.01;0.00;59042.03;10481436;28;20048;-79
2023/05/16 06:53:06;;;;;;;1.27;0.30;;;;;;;0.01;0.00;59042.03;10502988;28;20052;-81
2023/05/16 06:58:08;;;;;;;6.38;0.85;;;;;;;0.01;0.00;59042.03;10468131;28;20049;-81
2023/05/16 07:03:09;;;;;;;0.70;0.35;;;;;;;0.01;0.00;59042.03;10502849;28;20115;-79
2023/05/16 07:08:11;;;;;;;1.45;0.50;;;;;;;0.01;0.00;59042.03;10501691;28;20049;-79
2023/05/16 07:13:13;;;;;;;0.40;0.30;;;;;;;0.01;0.00;59042.03;10478746;28;20172;-80
2023/05/16 07:18:14;;;;;;;3.67;0.50;;;;;;;0.01;0.00;59042.03;10494456;28;20041;-81
2023/05/16 07:23:16;;;;;;;4.85;0.57;;;;;;;0.01;0.00;59042.03;10479864;28;20044;-81
2023/05/16 07:28:18;;;;;;;1.40;0.45;;;;;;;0.01;0.00;59042.03;10480154;28;20140;-83
2023/05/16 07:33:19;;;;;;;3.47;0.45;;;;;;;0.01;0.00;59042.03;10481681;28;20045;-81
2023/05/16 07:38:21;;;;;;;4.70;0.43;;;;;;;0.01;0.00;59042.03;10491082;28;20060;-82
2023/05/16 07:43:23;;;;;;;5.28;0.70;;;;;;;0.01;0.00;59042.03;10505621;28;20059;-82
2023/05/16 07:48:25;;;;;;;2.35;0.47;;;;;;;0.01;0.00;59042.03;10506542;28;20052;-81
2023/05/16 07:53:27;;;;;;;4.40;0.88;;;;;;;0.01;0.00;59042.03;10489247;28;20044;-78
2023/05/16 07:58:29;;;;;;;6.45;1.08;;;;;;;0.01;0.00;59042.03;10494202;28;20108;-79
2023/05/16 08:03:30;;;;;;;3.10;0.65;;;;;;;0.01;0.00;59042.03;10482825;28;20067;-78
2023/05/16 08:08:33;;;;;;;1.58;0.40;;;;;;;0.01;0.00;59042.03;10468523;28;20152;-81
2023/05/16 08:13:35;;;;;;;4.60;0.57;;;;;;;0.01;0.00;59042.03;10481186;28;20041;-79
2023/05/16 08:18:36;;;;;;;4.20;0.40;;;;;;;0.01;0.00;59042.03;10470463;28;20432;-80
2023/05/16 08:23:39;;;;;;;3.05;0.40;;;;;;;0.01;0.00;59042.03;10465147;28;20067;-80
2023/05/16 08:28:42;;;;;;;2.63;0.57;;;;;;;0.01;0.00;59042.03;10475433;28;20159;-80
2023/05/16 08:33:43;;;;;;;1.02;0.30;;;;;;;0.01;0.00;59042.03;10466145;28;20097;-79
2023/05/16 08:38:45;;;;;;;1.05;0.25;;;;;;;0.01;0.00;59042.03;10464640;28;20093;-79
2023/05/16 08:43:47;;;;;;;5.13;0.57;;;;;;;0.01;0.00;59042.03;10459771;28;20440;-79
2023/05/16 08:48:52;;;;;;;2.47;0.68;;;;;;;0.01;0.00;59042.03;10477205;28;20076;-79
2023/05/16 08:54:02;;;;;;;0.73;0.40;;;;;;;0.01;0.00;59042.03;10459094;28;20478;-81
2023/05/16 08:59:04;;;;;;;1.85;0.70;;;;;;;0.01;0.00;59042.03;10458071;28;20715;-80
2023/05/16 09:04:08;;;;;;;2.67;0.40;;;;;;;0.01;0.00;59042.03;10482863;28;20049;-79
2023/05/16 09:09:11;;;;;;;4.15;0.68;;;;;;;0.01;0.00;59042.03;10448086;28;20045;-79
2023/05/16 09:14:13;;;;;;;2.25;0.40;;;;;;;0.01;0.00;59042.03;10460041;28;20055;-79
2023/05/16 09:19:15;;;;;;;3.83;0.55;;;;;;;0.01;0.00;59042.03;10474860;28;20072;-78
2023/05/16 09:24:24;;;;;;;2.75;0.68;;;;;;;0.01;0.00;59042.03;10459475;28;20048;-78
2023/05/16 09:29:26;;;;;;;2.65;0.65;;;;;;;0.01;0.00;59042.03;10435607;28;20049;-76
2023/05/16 09:34:28;;;;;;;7.50;0.68;;;;;;;0.01;0.00;59042.03;10456356;28;20424;-77
2023/05/16 09:39:31;;;;;;;6.80;0.88;;;;;;;0.01;0.00;59042.03;10471912;28;20544;-77
2023/05/16 09:44:33;;;;;;;3.97;0.70;;;;;;;0.01;0.00;59042.03;10459346;28;20156;-79
2023/05/16 09:49:36;;;;;;;1.00;0.40;;;;;;;0.01;0.00;59042.03;10473390;28;20064;-80
2023/05/16 09:54:38;;;;;;;3.03;0.40;;;;;;;0.01;0.00;59042.03;10474020;28;20113;-79
2023/05/16 09:59:40;;;;;;;3.50;0.40;;;;;;;0.01;0.00;59042.03;10460397;28;20505;-79
2023/05/16 10:04:42;;;;;;;1.17;0.47;;;;;;;0.01;0.00;59042.03;10457069;28;20045;-79
2023/05/16 10:09:45;;;;;;;2.85;0.30;;;;;;;0.01;0.00;59042.03;10499391;28;20060;-79
2023/05/16 10:14:49;;;;;;;4.22;0.70;;;;;;;0.01;0.00;59042.03;10497154;28;20084;-79
2023/05/16 10:19:52;;;;;;;0.85;0.30;;;;;;;0.01;0.00;59042.03;10481006;28;20032;-79
2023/05/16 10:25:19;;;;;;;1.58;0.50;;;;;;;0.01;0.00;59042.03;10487917;28;20048;-79
2023/05/16 10:30:21;;;;;;;2.03;0.40;;;;;;;0.01;0.00;59042.03;10482820;28;20355;-79
2023/05/16 10:35:23;;;;;;;4.45;0.68;;;;;;;0.01;0.00;59042.03;10486727;28;20256;-82
2023/05/16 10:40:25;;;;;;;1.20;0.40;;;;;;;0.01;0.00;59042.03;10472559;28;20063;-82
2023/05/16 10:45:27;;;;;;;1.50;0.50;;;;;;;0.01;0.00;59042.03;10460178;28;20040;-82
2023/05/16 10:50:41;;;;;;;0.60;0.43;;;;;;;0.01;0.00;59042.03;10462786;28;20044;-83
2023/05/16 10:56:05;;;;;;;4.15;0.77;;;;;;;0.01;0.00;59042.03;10466605;28;20236;-82
2023/05/16 11:01:21;;;;;;;3.05;0.70;;;;;;;0.01;0.00;59042.03;10475461;28;20041;-81
2023/05/16 11:06:24;;;;;;;4.10;0.88;;;;;;;0.01;0.00;59042.03;10495520;28;20124;-82
2023/05/16 11:11:47;;;;;;;5.38;0.40;;;;;;;0.01;0.00;59042.03;10491378;28;20040;-82
2023/05/16 11:17:01;;;;;;;3.92;0.60;;;;;;;0.01;0.00;59042.03;10462342;28;20041;-81
2023/05/16 11:22:18;;;;;;;3.70;0.75;;;;;;;0.01;0.00;59042.03;10472129;28;20325;-81
2023/05/16 11:27:28;;;;;;;4.68;0.55;;;;;;;0.01;0.00;59042.03;10492502;28;20055;-81
2023/05/16 11:32:33;;;;;;;7.18;0.50;;;;;;;0.01;0.00;59042.03;10486923;28;20098;-80
2023/05/16 11:37:35;;;;;;;0.20;0.20;;;;;;;0.01;0.00;59042.03;10474454;28;20081;-81
2023/05/16 11:42:43;;;;;;;1.50;0.40;;;;;;;0.01;0.00;59042.03;10472877;28;20052;-80
2023/05/16 11:47:46;;;;;;;5.20;0.88;;;;;;;0.01;0.00;59042.03;10472158;28;20036;-80
2023/05/16 11:52:54;;;;;;;3.42;0.50;;;;;;;0.01;0.00;59042.03;10497669;28;20508;-81
2023/05/16 11:57:57;;;;;;;4.60;0.38;;;;;;;0.01;0.00;59042.03;10465474;28;20040;-80
2023/05/16 12:03:03;;;;;;;1.45;0.60;;;;;;;0.01;0.00;59042.03;10447625;28;20045;-80
2023/05/16 12:08:05;;;;;;;1.60;0.50;;;;;;;0.01;0.00;59042.03;10466525;28;20394;-81
2023/05/16 12:13:07;;;;;;;0.40;0.30;;;;;;;0.01;0.00;59042.03;10456497;28;20045;-82
2023/05/16 12:18:10;;;;;;;1.38;0.77;;;;;;;0.01;0.00;59042.03;10482557;28;20068;-82
2023/05/16 12:23:12;;;;;;;1.90;0.50;;;;;;;0.01;0.00;59042.03;10471026;28;20058;-81
2023/05/16 12:28:15;;;;;;;0.88;0.40;;;;;;;0.01;0.00;59042.03;10490977;28;20108;-78
2023/05/16 12:33:16;;;;;;;2.35;0.35;;;;;;;0.01;0.00;59042.03;10472475;28;20079;-80
2023/05/16 12:38:19;;;;;;;5.85;0.47;;;;;;;0.01;0.00;59042.03;10487891;28;20437;-80
2023/05/16 12:43:21;;;;;;;5.05;0.75;;;;;;;0.01;0.00;59042.03;10488962;28;20056;-80
2023/05/16 12:48:32;;;;;;;0.38;0.30;;;;;;;0.01;0.00;59042.03;10476871;28;20071;-79
2023/05/16 12:53:41;;;;;;;2.65;0.40;;;;;;;0.01;0.00;59042.03;10488162;28;20383;-78
2023/05/16 12:58:43;;;;;;;12.27;0.65;;;;;;;0.01;0.00;59042.03;10462396;28;20060;-78
2023/05/16 13:03:45;;;;;;;0.77;0.22;;;;;;;0.01;0.00;59042.03;10471866;28;20061;-79
2023/05/16 13:08:47;;;;;;;0.85;0.10;;;;;;;0.01;0.00;59042.03;10478087;28;20437;-80
2023/05/16 13:13:49;;;;;;;1.13;0.30;;;;;;;0.01;0.00;59042.03;10482187;28;20048;-79
2023/05/16 13:18:51;;;;;;;0.55;0.10;;;;;;;0.01;0.00;59042.03;10456134;28;20045;-80
2023/05/16 13:23:52;;;;;;;0.52;0.30;;;;;;;0.01;0.00;59042.03;10432682;28;20391;-79
2023/05/16 13:28:54;;;;;;;0.88;0.45;;;;;;;0.01;0.00;59042.03;10480199;28;20090;-78
2023/05/16 13:33:57;;;;;;;2.22;0.68;;;;;;;0.01;0.00;59042.03;10464552;28;20044;-79
2023/05/16 13:39:00;;;;;;;1.27;0.50;;;;;;;0.01;0.00;59042.03;10478127;28;20315;-79
2023/05/16 13:44:04;;;;;;;1.30;0.43;;;;;;;0.01;0.00;59042.03;10485625;28;20088;-78
2023/05/16 13:49:07;;;;;;;1.30;0.60;;;;;;;0.01;0.00;59042.03;10478573;28;20061;-78
2023/05/16 13:54:08;;;;;;;0.90;0.40;;;;;;;0.01;0.00;59042.03;10454596;28;20040;-79
2023/05/16 13:59:10;;;;;;;0.38;0.20;;;;;;;0.01;0.00;59042.03;10460710;28;20037;-78
2023/05/16 14:04:21;;;;;;;4.57;0.57;;;;;;;0.01;0.00;59042.03;10486203;28;20143;-79
2023/05/16 14:09:23;;;;;;;4.32;0.80;;;;;;;0.01;0.00;59042.03;10484871;28;20061;-79
2023/05/16 14:14:25;;;;;;;5.53;1.25;;;;;;;0.01;0.00;59042.03;10477677;28;20048;-78
2023/05/16 14:19:26;;;;;;;2.42;0.40;;;;;;;0.01;0.00;59042.03;10485853;28;20575;-79
2023/05/16 14:24:28;;;;;;;6.70;1.30;;;;;;;0.01;0.00;59042.03;10457131;28;20508;-79
2023/05/16 14:29:30;;;;;;;3.20;0.88;;;;;;;0.01;0.00;59042.03;10451033;28;20044;-78
2023/05/16 14:34:32;;;;;;;3.00;1.15;;;;;;;0.01;0.00;59042.03;10432028;28;20520;-77
2023/05/16 14:39:34;;;;;;;4.03;0.95;;;;;;;0.01;0.00;59042.03;10474124;28;20067;-78
2023/05/16 14:44:35;;;;;;;1.88;0.95;;;;;;;0.01;0.00;59042.03;10448832;28;20087;-78
2023/05/16 14:49:37;;;;;;;1.95;0.70;;;;;;;0.01;0.00;59042.03;10441433;28;20041;-79
2023/05/16 14:54:38;;;;;;;7.97;1.00;;;;;;;0.01;0.00;59042.03;10452730;28;20631;-78
2023/05/16 14:59:40;;;;;;;2.13;0.70;;;;;;;0.01;0.00;59042.03;10432367;28;20045;-79
2023/05/16 15:04:42;;;;;;;7.07;1.45;;;;;;;0.01;0.00;59042.03;10414231;28;20774;-78
2023/05/16 15:09:44;;;;;;;3.47;0.82;;;;;;;0.01;0.00;59042.03;10442022;28;20041;-78
2023/05/16 15:14:45;;;;;;;5.82;0.88;;;;;;;0.01;0.00;59042.03;10447969;28;20057;-78
2023/05/16 15:19:47;;;;;;;1.73;0.80;;;;;;;0.01;0.00;59042.03;10429535;28;20041;-79
2023/05/16 15:24:49;;;;;;;2.03;0.65;;;;;;;0.01;0.00;59042.03;10426877;28;20139;-78
2023/05/16 15:29:51;;;;;;;1.15;0.50;;;;;;;0.01;0.00;59042.03;10431483;28;20052;-77
2023/05/16 15:34:53;;;;;;;3.42;1.00;;;;;;;0.01;0.00;59042.03;10408343;28;20040;-77
2023/05/16 15:39:54;;;;;;;2.42;1.02;;;;;;;0.01;0.00;59042.03;10429391;28;20041;-80
2023/05/16 15:44:56;;;;;;;2.50;0.82;;;;;;;0.01;0.00;59042.03;10440698;28;20040;-78
2023/05/16 15:49:58;;;;;;;5.03;1.15;;;;;;;0.01;0.00;59042.03;10445047;28;20512;-78
2023/05/16 15:55:00;;;;;;;1.85;0.90;;;;;;;0.01;0.00;59042.03;10423684;28;20048;-80
2023/05/16 16:00:02;;;;;;;3.95;1.20;;;;;;;0.01;0.00;59042.03;10433106;28;20053;-77
2023/05/16 16:05:12;;;;;;;1.63;0.70;;;;;;;0.01;0.00;59042.03;10449386;28;20252;-79
2023/05/16 16:10:16;;;;;;;1.02;0.57;;;;;;;0.01;0.00;59042.03;10457372;28;20076;-78
2023/05/16 16:15:20;;;;;;;3.15;1.10;;;;;;;0.01;0.00;59042.03;10443747;28;20095;-79
2023/05/16 16:20:22;;;;;;;1.92;0.77;;;;;;;0.01;0.00;59042.03;10423749;28;20044;-80
2023/05/16 16:25:25;;;;;;;3.10;1.17;;;;;;;0.01;0.00;59042.03;10451037;28;20511;-79
2023/05/16 16:30:27;;;;;;;4.38;1.05;;;;;;;0.01;0.00;59042.03;10418115;28;20041;-79
2023/05/16 16:35:29;;;;;;;3.33;1.13;;;;;;;0.01;0.00;59042.03;10444105;28;20080;-79
2023/05/16 16:40:31;;;;;;;3.13;1.15;;;;;;;0.01;0.00;59042.03;10457793;28;20060;-79
2023/05/16 16:45:33;;;;;;;2.70;1.13;;;;;;;0.01;0.00;59042.03;10449066;28;20053;-79
2023/05/16 16:50:35;;;;;;;4.68;1.10;;;;;;;0.01;0.00;59042.03;10433341;28;20037;-79
2023/05/16 16:55:37;;;;;;;6.78;1.20;;;;;;;0.01;0.00;59042.03;10442234;28;20044;-78
2023/05/16 17:00:42;;;;;;;4.07;1.48;;;;;;;0.01;0.00;59042.03;10417140;28;20037;-78
2023/05/16 17:05:43;;;;;;;5.22;1.17;;;;;;;0.01;0.00;59042.03;10418191;28;20072;-79
2023/05/16 17:10:46;;;;;;;3.33;1.10;;;;;;;0.01;0.00;59042.03;10418586;28;20045;-79
2023/05/16 17:15:48;;;;;;;4.25;0.98;;;;;;;0.01;0.00;59042.03;10446952;28;20041;-79
2023/05/16 17:20:50;;;;;;;3.40;1.42;;;;;;;0.01;0.00;59042.03;10429045;28;20072;-80
2023/05/16 17:25:52;;;;;;;2.58;1.15;;;;;;;0.01;0.00;59042.03;10432954;28;20091;-80
2023/05/16 17:30:54;;;;;;;2.42;0.95;;;;;;;0.01;0.00;59042.03;10427167;28;20509;-81
2023/05/16 17:35:56;;;;;;;3.08;1.25;;;;;;;0.01;0.00;59042.03;10430653;28;20041;-80
2023/05/16 17:40:59;;;;;;;3.70;1.42;;;;;;;0.01;0.00;59042.03;10414859;28;20103;-79
2023/05/16 17:46:02;;;;;;;4.32;1.58;;;;;;;0.01;0.00;59042.03;10409230;28;20052;-79
2023/05/16 17:51:05;;;;;;;6.20;0.90;;;;;;;0.01;0.00;59042.03;10427809;28;20048;-80
2023/05/16 17:56:08;;;;;;;2.92;0.73;;;;;;;0.01;0.00;59042.03;10444434;28;20132;-80
2023/05/16 18:01:11;;;;;;;3.53;1.27;;;;;;;0.01;0.00;59042.03;10424236;28;20041;-81
2023/05/16 18:06:14;;;;;;;2.28;0.90;;;;;;;0.01;0.00;59042.03;10420376;28;20572;-81
2023/05/16 18:11:17;;;;;;;8.80;1.15;;;;;;;0.01;0.00;59042.03;10431093;28;20061;-78
2023/05/16 18:16:19;;;;;;;5.05;1.00;;;;;;;0.01;0.00;59042.03;10444814;28;20044;-81
2023/05/16 18:21:21;;;;;;;5.38;0.82;;;;;;;0.01;0.00;59042.03;10428967;28;20140;-80
2023/05/16 18:26:23;;;;;;;6.93;1.10;;;;;;;0.01;0.00;59042.03;10446212;28;20072;-79
2023/05/16 18:31:25;;;;;;;3.42;1.20;;;;;;;0.01;0.00;59042.03;10427212;28;20481;-80
2023/05/16 18:36:27;;;;;;;1.25;0.43;;;;;;;0.01;0.00;59042.03;10451473;28;20667;-78
2023/05/16 18:41:29;;;;;;;1.02;0.73;;;;;;;0.01;0.00;59042.03;10432061;28;20099;-79
2023/05/16 18:46:31;;;;;;;6.45;1.15;;;;;;;0.01;0.00;59042.03;10407774;28;20047;-79
2023/05/16 18:51:33;;;;;;;2.20;0.52;;;;;;;0.01;0.00;59042.03;10435467;28;20140;-79
2023/05/16 18:56:34;;;;;;;4.05;1.00;;;;;;;0.01;0.00;59042.03;10451300;28;20108;-79
2023/05/16 19:01:36;;;;;;;3.08;0.70;;;;;;;0.01;0.00;59042.03;10442011;28;20636;-78
2023/05/16 19:06:38;;;;;;;17.63;1.92;;;;;;;0.01;0.00;59042.03;10443097;28;20036;-78
2023/05/16 19:11:39;;;;;;;2.60;0.80;;;;;;;0.01;0.00;59042.03;10441643;28;20139;-78
2023/05/16 19:16:42;;;;;;;3.00;0.80;;;;;;;0.01;0.00;59042.03;10433886;28;20059;-78
2023/05/16 19:21:45;;;;;;;2.60;0.73;;;;;;;0.01;0.00;59042.03;10453217;28;20043;-78
2023/05/16 19:26:47;;;;;;;4.70;0.60;;;;;;;0.01;0.00;59042.03;10442700;28;20053;-77
2023/05/16 19:31:48;;;;;;;3.25;0.80;;;;;;;0.01;0.00;59042.03;10431349;28;20061;-78
2023/05/16 19:36:50;;;;;;;3.55;0.73;;;;;;;0.01;0.00;59042.03;10442795;28;20314;-78
2023/05/16 19:41:53;;;;;;;9.77;1.38;;;;;;;0.01;0.00;59042.03;10453142;28;20055;-78
2023/05/16 19:46:58;;;;;;;7.50;0.80;;;;;;;0.01;0.00;59042.03;10443646;28;20037;-78
2023/05/16 19:52:01;;;;;;;2.13;0.80;;;;;;;0.01;0.00;59042.03;10443666;28;20096;-80
2023/05/16 19:57:04;;;;;;;2.45;1.10;;;;;;;0.01;0.00;59042.03;10434206;28;20037;-78
2023/05/16 20:02:06;;;;;;;5.32;1.13;;;;;;;0.01;0.00;59042.03;10434381;28;20045;-78
2023/05/16 20:07:08;;;;;;;5.60;0.88;;;;;;;0.01;0.00;59042.03;10410108;28;20067;-78
2023/05/16 20:12:11;;;;;;;5.20;0.98;;;;;;;0.01;0.00;59042.03;10426772;28;20057;-79
2023/05/16 20:17:13;;;;;;;1.85;0.55;;;;;;;0.01;0.00;59042.03;10439324;28;20060;-79
2023/05/16 20:22:15;;;;;;;4.75;0.82;;;;;;;0.01;0.00;59042.03;10409907;28;20099;-79
2023/05/16 20:27:17;;;;;;;3.33;0.82;;;;;;;0.01;0.00;59042.03;10426782;28;20060;-79
2023/05/16 20:32:21;;;;;;;1.90;0.68;;;;;;;0.01;0.00;59042.03;10446567;28;20128;-78
2023/05/16 20:37:25;;;;;;;1.70;0.70;;;;;;;0.01;0.00;59042.03;10430382;28;20037;-78
2023/05/16 20:42:27;;;;;;;3.40;1.02;;;;;;;0.01;0.00;59042.03;10443386;28;20087;-80
2023/05/16 20:47:30;;;;;;;2.08;0.90;;;;;;;0.01;0.00;59042.03;10425711;28;20033;-78
2023/05/16 20:52:31;;;;;;;4.60;2.13;;;;;;;0.01;0.00;59042.03;10446226;28;20045;-77
2023/05/16 20:57:33;;;;;;;2.92;0.77;;;;;;;0.01;0.00;59042.03;10426827;28;20127;-78
2023/05/16 21:02:35;;;;;;;5.15;1.13;;;;;;;0.01;0.00;59042.03;10424544;28;20075;-78
2023/05/16 21:07:37;;;;;;;3.58;1.10;;;;;;;0.01;0.00;59042.03;10426366;28;20045;-78
2023/05/16 21:12:39;;;;;;;2.20;0.82;;;;;;;0.01;0.00;59042.03;10443645;28;20137;-78
2023/05/16 21:17:40;;;;;;;7.72;1.38;;;;;;;0.01;0.00;59042.03;10427357;28;20075;-79
2023/05/16 21:22:45;;;;;;;3.35;1.25;;;;;;;0.01;0.00;59042.03;10426410;28;20103;-78
2023/05/16 21:27:46;;;;;;;9.73;1.13;;;;;;;0.01;0.00;59042.03;10444720;28;20076;-79
2023/05/16 21:32:48;;;;;;;5.78;1.60;;;;;;;0.01;0.00;59042.03;10436764;28;20136;-78
2023/05/16 21:37:50;;;;;;;8.20;1.48;;;;;;;0.01;0.00;59042.03;10445052;28;20041;-78
2023/05/16 21:42:51;;;;;;;3.55;1.67;;;;;;;0.01;0.00;59042.03;10445483;28;20072;-78
2023/05/16 21:47:53;;;;;;;2.70;0.98;;;;;;;0.01;0.00;59042.03;10427415;28;20087;-79
2023/05/16 21:52:55;;;;;;;4.88;1.60;;;;;;;0.01;0.00;59042.03;10439043;28;20045;-79
2023/05/16 21:57:56;;;;;;;4.10;1.20;;;;;;;0.01;0.00;59042.03;10432416;28;20144;-78
2023/05/16 22:02:58;;;;;;;7.22;1.40;;;;;;;0.01;0.00;59042.03;10422023;28;20069;-78
2023/05/16 22:08:00;;;;;;;3.88;1.17;;;;;;;0.01;0.00;59042.03;10434711;28;20067;-78
2023/05/16 22:13:01;;;;;;;8.73;1.40;;;;;;;0.01;0.00;59042.03;10447468;28;20056;-78
2023/05/16 22:18:03;;;;;;;4.95;2.30;;;;;;;0.01;0.00;59042.03;10445894;28;20049;-77
2023/05/16 22:23:05;;;;;;;1.52;0.90;;;;;;;0.01;0.00;59042.03;10429154;28;20045;-77
2023/05/16 22:28:06;;;;;;;3.13;1.02;;;;;;;0.01;0.00;59042.03;10438438;28;20269;-78
2023/05/16 22:33:08;;;;;;;9.85;1.73;;;;;;;0.01;0.00;59042.03;10429874;28;20041;-78
2023/05/16 22:38:10;;;;;;;3.35;1.27;;;;;;;0.01;0.00;59042.03;10438015;28;20041;-79
2023/05/16 22:43:12;;;;;;;4.10;1.38;;;;;;;0.01;0.00;59042.03;10427868;28;20049;-78
2023/05/16 22:48:13;;;;;;;5.68;1.30;;;;;;;0.01;0.00;59042.03;10412002;28;20124;-79
2023/05/16 22:53:16;;;;;;;17.25;1.50;;;;;;;0.01;0.00;59042.03;10440427;28;20044;-78
2023/05/16 22:58:17;;;;;;;6.47;1.00;;;;;;;0.01;0.00;59042.03;10448450;28;20587;-78
2023/05/16 23:03:20;;;;;;;6.00;2.10;;;;;;;0.01;0.00;59042.03;10447146;28;20048;-78
2023/05/16 23:08:22;;;;;;;3.88;1.48;;;;;;;0.01;0.00;59042.03;10421721;28;20364;-78
2023/05/16 23:13:24;;;;;;;6.70;1.30;;;;;;;0.01;0.00;59042.03;10429216;28;20079;-78
2023/05/16 23:18:26;;;;;;;1.48;0.93;;;;;;;0.01;0.00;59042.03;10435138;28;20053;-79
2023/05/16 23:23:28;;;;;;;6.28;2.47;;;;;;;0.01;0.00;59042.03;10442534;28;20053;-79
2023/05/16 23:28:29;;;;;;;8.77;1.33;;;;;;;0.01;0.00;59042.03;10442916;28;20064;-78
2023/05/16 23:33:31;;;;;;;3.53;0.90;;;;;;;0.01;0.00;59042.03;10445615;28;20060;-79
2023/05/16 23:38:33;;;;;;;6.57;2.22;;;;;;;0.01;0.00;59042.03;10416860;28;20479;-79
2023/05/16 23:43:35;;;;;;;3.08;0.80;;;;;;;0.01;0.00;59042.03;10441903;28;20094;-79
2023/05/16 23:48:36;;;;;;;7.13;1.40;;;;;;;0.01;0.00;59042.03;10456225;28;20064;-79
2023/05/16 23:53:38;;;;;;;2.50;0.95;;;;;;;0.01;0.00;59042.03;10441020;28;20406;-80
2023/05/16 23:58:40;;;;;;;3.67;1.05;;;;;;;0.01;0.00;59042.03;10452210;28;20087;-79
